Middle Wallop, United Kingdom
Current Conditions -  °F | °C
As of 7:50 PM on Friday 28 Nov 2014 (Local Time) from EGVP Reporting Station
Broken Clouds Broken Clouds  
Wind Chill: 10°   Ceiling: 8000
Heat Index: 10°   Visibility: 6mi
Dew Point:   Wind: 13mph
Humidity: 94%   Direction: 50°NE
Pressure: 29.65"   Gusts: NA
Location:  51.15°N, 1.57°W
Report Text: EGVP 281950Z AUTO 05011KT 9000 // BKN080/// BKN130/// 10/09 Q1004
Loading
Personal Weather Stations






























Interactive Weather Map New forecast layout! Learn more

10-Day Weather Forecast

Advertisements
Track Severe Weather on mobile